Time;durP1;ratioP1;P1;durP2;ratioP2;P2;SDS_P1;SDS_P2;PMS_P1;PMS_P2;Temp;Humidity;BMP_temperature;BMP_pressure;BME280_temperature;BME280_humidity;BME280_pressure;Samples;Min_cycle;Max_cycle;Signal;HPM_P1;HPM_P2
2022/07/21 00:01:55;;;;;;;66.90;9.83;;;;;;;;;;5092290;28;20962;-70
2022/07/21 00:04:22;;;;;;;71.20;9.30;;;;;;;;;;5092235;28;20469;-70
2022/07/21 00:06:50;;;;;;;66.73;8.90;;;;;;;;;;5092055;28;20939;-70
2022/07/21 00:09:19;;;;;;;66.47;9.13;;;;;;;;;;5091830;28;20474;-70
2022/07/21 00:11:46;;;;;;;69.57;10.00;;;;;;;;;;5092132;28;20488;-70
2022/07/21 00:14:13;;;;;;;65.63;9.73;;;;;;;;;;5092068;28;20450;-70
2022/07/21 00:16:41;;;;;;;68.67;8.97;;;;;;;;;;5091989;28;20442;-70
2022/07/21 00:19:08;;;;;;;65.67;9.40;;;;;;;;;;5091706;28;20447;-70
2022/07/21 00:21:35;;;;;;;66.57;8.63;;;;;;;;;;5089662;28;20482;-70
2022/07/21 00:24:03;;;;;;;67.10;9.60;;;;;;;;;;5091962;28;20449;-70
2022/07/21 00:26:31;;;;;;;67.27;9.93;;;;;;;;;;5091812;28;20446;-69
2022/07/21 00:28:58;;;;;;;65.10;9.47;;;;;;;;;;5091503;28;20454;-69
2022/07/21 00:31:25;;;;;;;70.80;9.70;;;;;;;;;;5091744;28;20505;-69
2022/07/21 00:33:53;;;;;;;66.37;9.90;;;;;;;;;;5091644;28;20454;-69
2022/07/21 00:36:20;;;;;;;71.17;9.40;;;;;;;;;;5091896;28;20446;-69
2022/07/21 00:38:47;;;;;;;68.17;10.20;;;;;;;;;;5091310;28;20447;-69
2022/07/21 00:41:14;;;;;;;65.73;8.63;;;;;;;;;;5091655;28;20482;-69
2022/07/21 00:43:43;;;;;;;66.70;9.17;;;;;;;;;;5091346;28;20951;-69
2022/07/21 00:46:10;;;;;;;65.47;9.33;;;;;;;;;;5091693;28;20443;-69
2022/07/21 00:48:37;;;;;;;67.07;10.00;;;;;;;;;;5091001;28;20447;-69
2022/07/21 00:51:05;;;;;;;64.40;9.33;;;;;;;;;;5091799;28;20476;-69
2022/07/21 00:53:32;;;;;;;68.07;9.80;;;;;;;;;;5089194;28;20450;-69
2022/07/21 00:55:59;;;;;;;65.87;10.07;;;;;;;;;;5091619;28;20955;-69
2022/07/21 00:58:26;;;;;;;67.90;10.07;;;;;;;;;;5091249;28;20545;-69
2022/07/21 01:00:55;;;;;;;64.70;8.47;;;;;;;;;;5091257;28;20462;-69
2022/07/21 01:03:22;;;;;;;65.57;9.43;;;;;;;;;;5091475;28;20901;-69
2022/07/21 01:05:50;;;;;;;66.40;10.30;;;;;;;;;;5091283;28;20457;-69
2022/07/21 01:08:17;;;;;;;68.00;9.10;;;;;;;;;;5091501;28;20442;-69
2022/07/21 01:10:44;;;;;;;66.07;9.10;;;;;;;;;;5091351;28;20990;-69
2022/07/21 01:13:11;;;;;;;67.03;10.70;;;;;;;;;;5091535;28;20442;-69
2022/07/21 01:15:39;;;;;;;64.67;9.17;;;;;;;;;;5091082;28;20542;-69
2022/07/21 01:18:07;;;;;;;66.63;9.50;;;;;;;;;;5091157;28;20450;-69
2022/07/21 01:20:35;;;;;;;66.27;8.43;;;;;;;;;;5091022;28;20466;-69
2022/07/21 01:23:04;;;;;;;67.67;10.37;;;;;;;;;;5091316;28;20490;-69
2022/07/21 01:25:32;;;;;;;63.90;8.70;;;;;;;;;;5091305;28;20453;-69
2022/07/21 01:27:59;;;;;;;65.17;8.57;;;;;;;;;;5089086;28;20940;-69
2022/07/21 01:30:26;;;;;;;66.23;9.10;;;;;;;;;;5090748;28;20462;-69
2022/07/21 01:32:53;;;;;;;66.37;9.50;;;;;;;;;;5091386;28;20438;-70
2022/07/21 01:35:21;;;;;;;65.50;9.00;;;;;;;;;;5091251;28;20450;-70
2022/07/21 01:37:49;;;;;;;64.97;9.30;;;;;;;;;;5091104;28;20447;-70
2022/07/21 01:43:02;;;;;;;64.67;8.33;;;;;;;;;;5088352;28;20627;-70
2022/07/21 01:45:30;;;;;;;69.07;11.40;;;;;;;;;;5091173;28;20447;-70
2022/07/21 01:47:57;;;;;;;65.97;9.00;;;;;;;;;;5090801;28;20448;-70
2022/07/21 01:50:26;;;;;;;66.77;9.87;;;;;;;;;;5090753;28;20462;-70
2022/07/21 01:52:54;;;;;;;68.00;9.57;;;;;;;;;;5090973;28;20446;-70
2022/07/21 01:55:23;;;;;;;67.40;9.17;;;;;;;;;;5091369;28;20818;-70
2022/07/21 01:57:50;;;;;;;66.23;9.47;;;;;;;;;;5094728;28;20452;-70
2022/07/21 02:00:17;;;;;;;65.17;8.90;;;;;;;;;;5092062;28;21000;-70
2022/07/21 02:02:44;;;;;;;67.03;8.80;;;;;;;;;;5094314;28;21029;-70
2022/07/21 02:05:12;;;;;;;65.40;8.53;;;;;;;;;;5094559;28;20457;-70
2022/07/21 02:07:39;;;;;;;72.43;9.60;;;;;;;;;;5094318;28;20479;-70
2022/07/21 02:10:06;;;;;;;65.47;8.83;;;;;;;;;;5094108;28;20470;-70
2022/07/21 02:12:35;;;;;;;65.53;8.87;;;;;;;;;;5094438;28;20442;-70
2022/07/21 02:15:02;;;;;;;66.17;9.23;;;;;;;;;;5094334;28;20449;-70
2022/07/21 02:17:29;;;;;;;64.27;8.27;;;;;;;;;;5094313;28;20534;-70
2022/07/21 02:19:56;;;;;;;65.97;9.83;;;;;;;;;;5093788;28;20477;-70
2022/07/21 02:22:23;;;;;;;64.70;8.90;;;;;;;;;;5094160;28;20486;-70
2022/07/21 02:24:50;;;;;;;66.27;9.20;;;;;;;;;;5094142;28;20948;-70
2022/07/21 02:27:17;;;;;;;65.80;9.47;;;;;;;;;;5094023;28;20485;-70
2022/07/21 02:29:46;;;;;;;63.87;8.63;;;;;;;;;;5093585;28;20462;-70
2022/07/21 02:32:13;;;;;;;62.53;7.40;;;;;;;;;;5092028;28;20446;-70
2022/07/21 02:34:40;;;;;;;65.87;9.03;;;;;;;;;;5093762;28;20450;-70
2022/07/21 02:37:07;;;;;;;63.70;8.90;;;;;;;;;;5094108;28;20541;-70
2022/07/21 02:39:34;;;;;;;63.50;8.43;;;;;;;;;;5093445;28;20993;-70
2022/07/21 02:42:02;;;;;;;65.30;8.10;;;;;;;;;;5093892;28;20489;-70
2022/07/21 02:44:30;;;;;;;65.83;9.97;;;;;;;;;;5093622;28;20965;-70
2022/07/21 02:46:59;;;;;;;66.37;8.60;;;;;;;;;;5093757;28;20824;-70
2022/07/21 02:49:26;;;;;;;70.87;10.20;;;;;;;;;;5092930;28;20473;-70
2022/07/21 02:51:53;;;;;;;64.63;8.73;;;;;;;;;;5093672;28;20453;-70
2022/07/21 02:54:20;;;;;;;66.20;9.20;;;;;;;;;;5093687;28;20466;-70
2022/07/21 02:56:47;;;;;;;66.30;10.20;;;;;;;;;;5093699;28;20529;-70
2022/07/21 02:59:15;;;;;;;66.73;9.30;;;;;;;;;;5092838;28;20598;-70
2022/07/21 03:01:42;;;;;;;66.40;10.43;;;;;;;;;;5093354;28;20959;-70
2022/07/21 03:04:11;;;;;;;65.40;9.30;;;;;;;;;;5092907;28;20442;-70
2022/07/21 03:06:38;;;;;;;67.40;9.57;;;;;;;;;;5092334;28;20458;-70
2022/07/21 03:09:06;;;;;;;65.17;9.10;;;;;;;;;;5092790;28;20933;-70
2022/07/21 03:11:34;;;;;;;66.27;9.33;;;;;;;;;;5093290;28;20447;-70
2022/07/21 03:14:01;;;;;;;66.87;9.23;;;;;;;;;;5093285;28;20450;-70
2022/07/21 03:16:28;;;;;;;65.97;9.33;;;;;;;;;;5092880;28;20969;-70
2022/07/21 03:18:55;;;;;;;64.47;8.17;;;;;;;;;;5092712;28;20534;-71
2022/07/21 03:21:24;;;;;;;67.00;9.90;;;;;;;;;;5093179;28;20472;-71
2022/07/21 03:23:51;;;;;;;67.20;9.73;;;;;;;;;;5093181;28;20940;-71
2022/07/21 03:26:18;;;;;;;64.60;9.43;;;;;;;;;;5092827;28;20457;-71
2022/07/21 03:28:45;;;;;;;66.20;9.20;;;;;;;;;;5092592;28;20446;-71
2022/07/21 03:31:13;;;;;;;66.30;9.47;;;;;;;;;;5092652;28;20467;-71
2022/07/21 03:33:40;;;;;;;65.03;9.80;;;;;;;;;;5093029;28;20443;-71
2022/07/21 03:36:08;;;;;;;65.00;8.40;;;;;;;;;;5092828;28;20446;-71
2022/07/21 03:38:36;;;;;;;65.87;9.77;;;;;;;;;;5090183;28;20508;-71
2022/07/21 03:41:04;;;;;;;66.60;9.63;;;;;;;;;;5092605;28;20987;-71
2022/07/21 03:43:31;;;;;;;66.60;9.57;;;;;;;;;;5092184;28;20501;-71
2022/07/21 03:45:58;;;;;;;69.57;9.67;;;;;;;;;;5092577;28;20452;-71
2022/07/21 03:48:25;;;;;;;66.70;9.67;;;;;;;;;;5092687;28;20446;-71
2022/07/21 03:50:52;;;;;;;69.27;11.03;;;;;;;;;;5092159;28;20466;-70
2022/07/21 03:53:19;;;;;;;66.43;9.87;;;;;;;;;;5092406;28;20535;-70
2022/07/21 03:55:48;;;;;;;66.90;10.90;;;;;;;;;;5092400;28;20832;-70
2022/07/21 03:58:15;;;;;;;67.10;10.23;;;;;;;;;;5091975;28;21354;-70
2022/07/21 04:00:43;;;;;;;67.37;11.57;;;;;;;;;;5092012;28;20470;-70
2022/07/21 04:03:10;;;;;;;69.03;9.67;;;;;;;;;;5092337;28;20482;-70
2022/07/21 04:05:39;;;;;;;66.00;9.63;;;;;;;;;;5092317;28;20449;-70
2022/07/21 04:08:06;;;;;;;65.37;9.57;;;;;;;;;;5092245;28;20450;-70
2022/07/21 04:10:34;;;;;;;69.27;10.57;;;;;;;;;;5089409;28;20468;-70
2022/07/21 04:13:03;;;;;;;66.87;9.70;;;;;;;;;;5092316;28;20439;-70
2022/07/21 04:15:30;;;;;;;66.17;10.03;;;;;;;;;;5092018;28;20452;-70
2022/07/21 04:17:58;;;;;;;65.50;9.40;;;;;;;;;;5091876;28;20438;-70
2022/07/21 04:20:25;;;;;;;69.37;12.77;;;;;;;;;;5091378;28;20846;-70
2022/07/21 04:22:52;;;;;;;69.00;9.97;;;;;;;;;;5091795;28;20488;-70
2022/07/21 04:25:20;;;;;;;67.10;10.70;;;;;;;;;;5091694;28;20465;-70
2022/07/21 04:27:47;;;;;;;66.17;10.13;;;;;;;;;;5092016;28;20532;-70
2022/07/21 04:30:16;;;;;;;67.73;11.43;;;;;;;;;;5091803;28;20467;-70
2022/07/21 04:32:44;;;;;;;68.77;9.90;;;;;;;;;;5091820;28;20450;-70
2022/07/21 04:35:11;;;;;;;67.13;10.30;;;;;;;;;;5091407;28;20456;-70
2022/07/21 04:37:39;;;;;;;68.83;10.90;;;;;;;;;;5090171;28;20537;-70
2022/07/21 04:40:07;;;;;;;66.70;10.73;;;;;;;;;;5090977;28;20466;-70
2022/07/21 04:42:34;;;;;;;66.40;9.10;;;;;;;;;;5089395;28;20510;-70
2022/07/21 04:45:01;;;;;;;68.40;10.37;;;;;;;;;;5091409;28;20450;-70
2022/07/21 04:47:30;;;;;;;66.17;9.53;;;;;;;;;;5091654;28;20504;-70
2022/07/21 04:49:57;;;;;;;65.87;9.73;;;;;;;;;;5091238;28;20466;-70
2022/07/21 04:52:24;;;;;;;69.60;10.83;;;;;;;;;;5091528;28;20446;-70
2022/07/21 04:54:51;;;;;;;66.53;9.47;;;;;;;;;;5091651;28;20541;-70
2022/07/21 04:57:18;;;;;;;67.90;10.37;;;;;;;;;;5091582;28;20457;-70
2022/07/21 04:59:45;;;;;;;67.60;10.20;;;;;;;;;;5091018;28;21003;-70
2022/07/21 05:02:13;;;;;;;68.00;10.33;;;;;;;;;;5091466;28;20447;-70
2022/07/21 05:04:41;;;;;;;65.07;9.53;;;;;;;;;;5090875;28;20454;-70
2022/07/21 05:07:08;;;;;;;68.07;10.60;;;;;;;;;;5091269;28;20454;-70
2022/07/21 05:09:36;;;;;;;67.10;9.87;;;;;;;;;;5091278;28;20470;-70
2022/07/21 05:12:03;;;;;;;66.00;9.90;;;;;;;;;;5091284;28;20529;-70
2022/07/21 05:14:30;;;;;;;69.50;10.13;;;;;;;;;;5089728;28;20469;-70
2022/07/21 05:16:57;;;;;;;67.50;9.10;;;;;;;;;;5091412;28;20453;-70
2022/07/21 05:19:24;;;;;;;68.47;9.80;;;;;;;;;;5090619;28;20475;-70
2022/07/21 05:21:53;;;;;;;65.07;8.80;;;;;;;;;;5091540;28;20452;-70
2022/07/21 05:24:20;;;;;;;66.70;9.77;;;;;;;;;;5091163;28;20482;-70
2022/07/21 05:26:47;;;;;;;66.17;9.53;;;;;;;;;;5091182;28;20457;-70
2022/07/21 05:29:14;;;;;;;68.17;9.97;;;;;;;;;;5090970;28;20473;-70
2022/07/21 05:31:41;;;;;;;62.83;7.30;;;;;;;;;;5093688;28;20534;-70
2022/07/21 05:34:08;;;;;;;67.97;9.57;;;;;;;;;;5095479;28;20443;-70
2022/07/21 05:36:35;;;;;;;68.40;10.60;;;;;;;;;;5095306;28;20453;-70
2022/07/21 05:39:04;;;;;;;65.87;9.93;;;;;;;;;;5094691;28;20948;-70
2022/07/21 05:41:31;;;;;;;66.73;9.73;;;;;;;;;;5095030;28;20477;-70
2022/07/21 05:43:58;;;;;;;67.27;9.53;;;;;;;;;;5094989;28;20483;-70
2022/07/21 05:46:25;;;;;;;67.30;9.70;;;;;;;;;;5092348;28;20818;-70
2022/07/21 05:48:55;;;;;;;65.90;10.20;;;;;;;;;;5094533;28;20453;-70
2022/07/21 05:51:22;;;;;;;63.93;8.33;;;;;;;;;;5094896;28;20818;-70
2022/07/21 05:53:49;;;;;;;66.37;8.70;;;;;;;;;;5094849;28;20689;-70
2022/07/21 05:56:17;;;;;;;64.90;8.83;;;;;;;;;;5094608;28;20883;-70
2022/07/21 05:58:44;;;;;;;66.40;8.50;;;;;;;;;;5094089;28;20453;-70
2022/07/21 06:01:13;;;;;;;68.40;9.00;;;;;;;;;;5094422;28;20470;-70
2022/07/21 06:03:41;;;;;;;63.90;7.80;;;;;;;;;;5094578;28;20486;-70
2022/07/21 06:06:09;;;;;;;64.40;7.87;;;;;;;;;;5094367;28;20454;-70
2022/07/21 06:08:38;;;;;;;64.50;8.40;;;;;;;;;;5094109;28;20825;-70
2022/07/21 06:11:05;;;;;;;63.77;7.27;;;;;;;;;;5094352;28;20873;-70
2022/07/21 06:13:34;;;;;;;64.10;7.47;;;;;;;;;;5094086;28;20451;-70
2022/07/21 06:16:01;;;;;;;63.27;7.70;;;;;;;;;;5094522;28;20462;-70
2022/07/21 06:18:28;;;;;;;64.47;7.53;;;;;;;;;;5092170;28;20480;-70
2022/07/21 06:20:55;;;;;;;66.53;8.67;;;;;;;;;;5094110;28;20478;-70
2022/07/21 06:23:22;;;;;;;66.33;10.07;;;;;;;;;;5094054;28;20479;-70
2022/07/21 06:25:49;;;;;;;64.87;8.30;;;;;;;;;;5093976;28;20452;-70
2022/07/21 06:28:16;;;;;;;66.27;8.60;;;;;;;;;;5093685;28;20455;-70
2022/07/21 06:30:45;;;;;;;64.50;8.53;;;;;;;;;;5093960;28;20467;-70
2022/07/21 06:33:12;;;;;;;64.77;8.77;;;;;;;;;;5094226;28;20444;-70
2022/07/21 06:35:40;;;;;;;64.30;7.73;;;;;;;;;;5093895;28;20452;-70
2022/07/21 06:38:07;;;;;;;65.67;9.03;;;;;;;;;;5093893;28;20534;-70
2022/07/21 06:40:35;;;;;;;64.10;8.90;;;;;;;;;;5093220;28;20476;-70
2022/07/21 06:43:02;;;;;;;64.90;8.30;;;;;;;;;;5093635;28;20450;-70
2022/07/21 06:45:29;;;;;;;66.80;8.10;;;;;;;;;;5093641;28;20443;-70
2022/07/21 06:48:08;;;;;;;66.60;7.63;;;;;;;;;;5093595;28;20458;-69
2022/07/21 06:50:36;;;;;;;64.43;7.90;;;;;;;;;;5090643;28;20871;-69
2022/07/21 06:53:03;;;;;;;63.60;7.47;;;;;;;;;;5092269;28;20452;-70
2022/07/21 06:55:30;;;;;;;62.47;6.90;;;;;;;;;;5091996;28;20456;-70
2022/07/21 06:57:58;;;;;;;65.67;8.23;;;;;;;;;;5092274;28;20666;-70
2022/07/21 07:00:25;;;;;;;66.37;8.33;;;;;;;;;;5091973;28;20472;-70
2022/07/21 07:02:52;;;;;;;67.67;8.07;;;;;;;;;;5092138;28;20953;-70
2022/07/21 07:05:20;;;;;;;65.20;6.87;;;;;;;;;;5092168;28;20449;-70
2022/07/21 07:07:48;;;;;;;63.27;6.83;;;;;;;;;;5091624;28;20945;-70
2022/07/21 07:10:16;;;;;;;62.37;6.60;;;;;;;;;;5092996;28;20473;-70
2022/07/21 07:12:43;;;;;;;63.20;7.97;;;;;;;;;;5093352;28;20878;-70
2022/07/21 07:15:10;;;;;;;66.33;8.07;;;;;;;;;;5093080;28;20957;-70
2022/07/21 07:17:37;;;;;;;62.20;6.73;;;;;;;;;;5093475;28;20448;-70
2022/07/21 07:20:06;;;;;;;64.70;7.47;;;;;;;;;;5092316;28;20478;-70
2022/07/21 07:22:35;;;;;;;63.20;6.93;;;;;;;;;;5091039;28;20459;-70
2022/07/21 07:25:02;;;;;;;62.87;7.07;;;;;;;;;;5092954;28;20492;-70
2022/07/21 07:27:29;;;;;;;62.57;7.70;;;;;;;;;;5092725;28;20451;-70
2022/07/21 07:29:56;;;;;;;61.40;6.10;;;;;;;;;;5092647;28;20465;-70
2022/07/21 07:32:23;;;;;;;63.13;7.07;;;;;;;;;;5092736;28;20956;-70
2022/07/21 07:34:51;;;;;;;63.50;7.03;;;;;;;;;;5092747;28;20446;-70
2022/07/21 07:37:18;;;;;;;65.50;7.70;;;;;;;;;;5092782;28;20452;-70
2022/07/21 07:39:46;;;;;;;62.80;6.40;;;;;;;;;;5092252;28;20474;-70
2022/07/21 07:42:13;;;;;;;62.70;6.93;;;;;;;;;;5092504;28;20483;-70
2022/07/21 07:44:40;;;;;;;62.90;7.27;;;;;;;;;;5092704;28;20484;-70
2022/07/21 07:47:08;;;;;;;61.87;6.23;;;;;;;;;;5092688;28;20448;-70
2022/07/21 07:49:35;;;;;;;61.77;6.40;;;;;;;;;;5091656;28;20482;-70
2022/07/21 07:52:04;;;;;;;67.33;7.47;;;;;;;;;;5092729;28;20449;-70
2022/07/21 07:54:31;;;;;;;61.27;5.40;;;;;;;;;;5089335;28;20445;-70
2022/07/21 07:56:59;;;;;;;65.00;6.60;;;;;;;;;;5092670;28;20450;-70
2022/07/21 07:59:26;;;;;;;61.97;6.50;;;;;;;;;;5091935;28;20818;-70
2022/07/21 08:01:53;;;;;;;63.70;7.43;;;;;;;;;;5092172;28;20448;-70
2022/07/21 08:04:20;;;;;;;62.87;6.40;;;;;;;;;;5092086;28;21035;-70
2022/07/21 08:06:48;;;;;;;61.50;6.10;;;;;;;;;;5092433;28;20450;-70
2022/07/21 08:09:15;;;;;;;62.20;6.27;;;;;;;;;;5091219;28;20505;-68
2022/07/21 08:11:43;;;;;;;64.47;7.20;;;;;;;;;;5092166;28;20449;-68
2022/07/21 08:14:11;;;;;;;63.00;6.40;;;;;;;;;;5092115;28;20445;-68
2022/07/21 08:16:39;;;;;;;62.00;6.10;;;;;;;;;;5092364;28;20450;-68
2022/07/21 08:19:06;;;;;;;62.47;7.40;;;;;;;;;;5091652;28;20541;-68
2022/07/21 08:21:33;;;;;;;64.40;6.77;;;;;;;;;;5091967;28;20453;-68
2022/07/21 08:24:00;;;;;;;62.70;6.87;;;;;;;;;;5091643;28;20482;-68
2022/07/21 08:26:28;;;;;;;64.80;6.47;;;;;;;;;;5089884;28;20446;-68
2022/07/21 08:28:55;;;;;;;62.17;6.50;;;;;;;;;;5090974;28;20553;-68
2022/07/21 08:31:24;;;;;;;61.20;5.53;;;;;;;;;;5091950;28;20795;-68
2022/07/21 08:33:52;;;;;;;62.17;5.73;;;;;;;;;;5091626;28;20789;-68
2022/07/21 08:36:19;;;;;;;64.60;6.60;;;;;;;;;;5091786;28;20450;-69
2022/07/21 08:38:46;;;;;;;61.10;6.00;;;;;;;;;;5091457;28;20446;-69
2022/07/21 08:41:14;;;;;;;62.03;6.00;;;;;;;;;;5091754;28;20477;-69
2022/07/21 08:43:41;;;;;;;61.90;6.27;;;;;;;;;;5091535;28;20480;-69
2022/07/21 08:46:09;;;;;;;62.10;4.97;;;;;;;;;;5091740;28;20454;-69
2022/07/21 08:48:37;;;;;;;63.13;6.17;;;;;;;;;;5091124;28;20837;-69
2022/07/21 08:51:05;;;;;;;60.90;5.20;;;;;;;;;;5091738;28;20868;-69
2022/07/21 08:53:32;;;;;;;59.97;5.30;;;;;;;;;;5091670;28;20442;-69
2022/07/21 08:55:59;;;;;;;61.73;6.23;;;;;;;;;;5088721;28;20488;-69
2022/07/21 08:58:26;;;;;;;61.37;6.20;;;;;;;;;;5091405;28;21013;-69
2022/07/21 09:00:54;;;;;;;61.07;5.40;;;;;;;;;;5091135;28;20481;-69
2022/07/21 09:03:22;;;;;;;60.47;6.03;;;;;;;;;;5091662;28;20454;-69
2022/07/21 09:06:06;;;;;;;62.07;5.00;;;;;;;;;;5094366;28;20573;-69
2022/07/21 09:08:35;;;;;;;61.30;5.83;;;;;;;;;;5094766;28;20831;-69
2022/07/21 09:11:12;;;;;;;60.67;5.47;;;;;;;;;;5095739;28;20570;-69
2022/07/21 09:13:39;;;;;;;60.40;5.30;;;;;;;;;;5095562;28;20446;-69
2022/07/21 09:16:06;;;;;;;65.03;7.00;;;;;;;;;;5095702;28;20536;-69
2022/07/21 09:18:34;;;;;;;61.70;5.07;;;;;;;;;;5095066;28;20446;-69
2022/07/21 09:21:01;;;;;;;60.70;5.10;;;;;;;;;;5095162;28;20466;-68
2022/07/21 09:23:30;;;;;;;61.67;5.70;;;;;;;;;;5095634;28;20446;-68
2022/07/21 09:25:59;;;;;;;62.10;5.70;;;;;;;;;;5095607;28;20515;-68
2022/07/21 09:28:26;;;;;;;61.20;4.57;;;;;;;;;;5092914;28;20561;-69
2022/07/21 09:30:58;;;;;;;61.43;5.33;;;;;;;;;;5095575;28;20466;-69
2022/07/21 09:33:26;;;;;;;60.77;5.27;;;;;;;;;;5094887;28;20541;-69
2022/07/21 09:35:58;;;;;;;60.80;5.40;;;;;;;;;;5095048;28;20533;-69
2022/07/21 09:38:25;;;;;;;61.60;5.07;;;;;;;;;;5095420;28;20521;-70
2022/07/21 09:40:56;;;;;;;62.27;5.40;;;;;;;;;;5095262;28;20887;-70
2022/07/21 09:43:33;;;;;;;61.77;4.80;;;;;;;;;;5094984;28;20457;-70
2022/07/21 09:46:04;;;;;;;61.47;5.30;;;;;;;;;;5095579;28;20482;-70
2022/07/21 09:48:35;;;;;;;61.50;5.30;;;;;;;;;;5094843;28;20454;-70
2022/07/21 09:51:26;;;;;;;61.50;5.30;;;;;;;;;;5095074;28;20805;-70
2022/07/21 09:53:54;;;;;;;60.67;5.10;;;;;;;;;;5080081;28;20541;-70
2022/07/21 09:56:23;;;;;;;61.10;4.97;;;;;;;;;;5094832;28;20443;-70
2022/07/21 09:58:51;;;;;;;62.30;5.70;;;;;;;;;;5093562;28;20548;-70
2022/07/21 10:01:19;;;;;;;60.47;5.23;;;;;;;;;;5074773;28;20875;-70
2022/07/21 10:03:47;;;;;;;60.97;4.90;;;;;;;;;;5074673;28;20439;-70
2022/07/21 10:06:16;;;;;;;59.90;4.70;;;;;;;;;;5074916;28;20819;-70
2022/07/21 10:08:43;;;;;;;61.13;5.20;;;;;;;;;;5074152;28;20455;-70
2022/07/21 10:11:11;;;;;;;61.20;5.13;;;;;;;;;;5074278;28;20467;-70
2022/07/21 10:13:40;;;;;;;60.90;4.60;;;;;;;;;;5074514;28;20455;-70
2022/07/21 10:16:09;;;;;;;60.60;4.57;;;;;;;;;;5073567;28;20478;-70
2022/07/21 10:18:38;;;;;;;60.57;4.40;;;;;;;;;;5073931;28;20484;-70
2022/07/21 10:21:09;;;;;;;60.87;4.43;;;;;;;;;;5073736;28;20548;-70
2022/07/21 10:23:38;;;;;;;60.67;4.30;;;;;;;;;;5073900;28;20471;-70
2022/07/21 10:26:07;;;;;;;60.37;4.93;;;;;;;;;;5073960;28;20491;-70
2022/07/21 10:28:35;;;;;;;61.87;4.77;;;;;;;;;;5073581;28;20454;-70
2022/07/21 10:31:14;;;;;;;59.77;4.43;;;;;;;;;;5079027;28;20473;-70
2022/07/21 10:33:55;;;;;;;59.77;4.70;;;;;;;;;;5094034;28;20943;-70
2022/07/21 10:36:52;;;;;;;59.47;3.97;;;;;;;;;;5093889;28;20525;-70
2022/07/21 10:39:20;;;;;;;59.60;4.53;;;;;;;;;;5031073;28;20619;-71
2022/07/21 10:41:48;;;;;;;59.60;4.73;;;;;;;;;;5080172;28;20549;-71
2022/07/21 10:44:34;;;;;;;61.77;4.73;;;;;;;;;;5094108;28;20880;-71
2022/07/21 10:47:04;;;;;;;60.50;4.97;;;;;;;;;;5094108;28;20443;-71
2022/07/21 10:49:59;;;;;;;59.80;4.40;;;;;;;;;;5093495;28;20493;-69
2022/07/21 10:52:45;;;;;;;59.57;4.40;;;;;;;;;;5093631;28;20538;-69
2022/07/21 10:55:17;;;;;;;59.33;4.17;;;;;;;;;;5094261;28;20450;-69
2022/07/21 10:57:44;;;;;;;61.47;4.83;;;;;;;;;;5093510;28;20442;-69
2022/07/21 11:00:22;;;;;;;60.03;4.50;;;;;;;;;;5093637;28;20469;-69
2022/07/21 11:02:52;;;;;;;61.73;5.57;;;;;;;;;;5091747;28;21025;-69
2022/07/21 11:05:19;;;;;;;58.30;4.00;;;;;;;;;;5093416;28;20573;-69
2022/07/21 11:08:05;;;;;;;59.00;5.07;;;;;;;;;;5094429;28;20511;-69
2022/07/21 11:10:33;;;;;;;59.73;5.10;;;;;;;;;;5093080;28;20554;-69
2022/07/21 11:13:00;;;;;;;58.77;4.50;;;;;;;;;;5093456;28;20453;-69
2022/07/21 11:15:46;;;;;;;59.97;4.20;;;;;;;;;;5093254;28;20977;-69
2022/07/21 11:18:19;;;;;;;58.63;4.20;;;;;;;;;;5092949;28;20453;-69
2022/07/21 11:21:01;;;;;;;58.20;4.23;;;;;;;;;;5092976;28;20474;-69
2022/07/21 11:23:36;;;;;;;58.77;4.10;;;;;;;;;;5093084;28;20446;-69
2022/07/21 11:26:03;;;;;;;58.97;4.00;;;;;;;;;;5093362;28;20471;-69
2022/07/21 11:28:30;;;;;;;58.70;3.90;;;;;;;;;;5091357;28;20612;-70
2022/07/21 11:31:07;;;;;;;60.10;4.80;;;;;;;;;;5092240;28;20474;-70
2022/07/21 11:33:36;;;;;;;59.33;4.07;;;;;;;;;;5092837;28;20604;-70
2022/07/21 11:36:04;;;;;;;60.97;4.70;;;;;;;;;;5090939;28;20443;-70
2022/07/21 11:38:32;;;;;;;60.63;5.30;;;;;;;;;;5092879;28;20430;-70
2022/07/21 11:41:14;;;;;;;60.10;4.43;;;;;;;;;;5092868;28;20471;-69
2022/07/21 11:43:41;;;;;;;59.23;4.10;;;;;;;;;;5093338;28;20456;-69
2022/07/21 11:46:09;;;;;;;58.50;3.70;;;;;;;;;;5092825;28;20489;-69
2022/07/21 11:48:37;;;;;;;59.93;4.07;;;;;;;;;;5093056;28;20545;-69
2022/07/21 11:51:05;;;;;;;58.87;4.47;;;;;;;;;;5092767;28;20466;-69
2022/07/21 11:53:32;;;;;;;58.47;3.60;;;;;;;;;;5093082;28;20541;-69
2022/07/21 11:55:59;;;;;;;58.60;3.80;;;;;;;;;;5092432;28;20465;-69
2022/07/21 11:58:26;;;;;;;58.30;3.70;;;;;;;;;;5092707;28;20462;-69
2022/07/21 12:01:05;;;;;;;59.07;4.30;;;;;;;;;;5092223;28;20470;-69
2022/07/21 12:03:33;;;;;;;61.47;4.03;;;;;;;;;;5091295;28;20450;-68
2022/07/21 12:06:02;;;;;;;58.67;3.80;;;;;;;;;;5092361;28;20528;-69
2022/07/21 12:08:30;;;;;;;58.37;3.97;;;;;;;;;;5090878;28;20486;-70
2022/07/21 12:11:07;;;;;;;58.77;4.03;;;;;;;;;;5092100;28;20478;-69
2022/07/21 12:13:49;;;;;;;58.23;3.70;;;;;;;;;;5092361;28;20442;-69
2022/07/21 12:16:16;;;;;;;58.30;4.10;;;;;;;;;;5091934;28;20443;-69
2022/07/21 12:18:43;;;;;;;59.80;4.60;;;;;;;;;;5092101;28;20444;-69
2022/07/21 12:21:12;;;;;;;57.80;3.43;;;;;;;;;;5092512;28;20466;-69
2022/07/21 12:23:39;;;;;;;58.70;3.53;;;;;;;;;;5091892;28;20445;-69
2022/07/21 12:26:06;;;;;;;58.37;3.40;;;;;;;;;;5091980;28;21022;-69
2022/07/21 12:28:43;;;;;;;58.17;3.80;;;;;;;;;;5091887;28;20446;-69
2022/07/21 12:31:14;;;;;;;58.93;3.87;;;;;;;;;;5092354;28;20470;-69
2022/07/21 12:33:41;;;;;;;58.23;3.30;;;;;;;;;;5092197;28;20450;-69
2022/07/21 12:36:09;;;;;;;58.60;4.27;;;;;;;;;;5091954;28;20515;-69
2022/07/21 12:38:41;;;;;;;58.17;4.10;;;;;;;;;;5089886;28;20497;-69
2022/07/21 12:41:09;;;;;;;59.30;4.53;;;;;;;;;;5091353;28;20474;-69
2022/07/21 12:43:37;;;;;;;58.70;3.80;;;;;;;;;;5091832;28;20450;-69
2022/07/21 12:46:10;;;;;;;59.17;4.80;;;;;;;;;;5091715;28;20484;-69
2022/07/21 12:48:37;;;;;;;58.93;4.40;;;;;;;;;;5091338;28;20446;-69
2022/07/21 12:51:10;;;;;;;59.20;4.30;;;;;;;;;;5091098;28;20471;-69
2022/07/21 12:53:38;;;;;;;59.83;4.13;;;;;;;;;;5091573;28;20948;-69
2022/07/21 12:56:07;;;;;;;59.43;4.50;;;;;;;;;;5091549;28;20445;-68
2022/07/21 12:58:35;;;;;;;60.47;5.00;;;;;;;;;;5091224;28;20458;-68
2022/07/21 13:01:03;;;;;;;59.83;4.70;;;;;;;;;;5091488;28;20490;-69
2022/07/21 13:03:31;;;;;;;59.63;4.20;;;;;;;;;;5091562;28;20450;-69
2022/07/21 13:05:58;;;;;;;60.00;4.60;;;;;;;;;;5091287;28;20501;-69
2022/07/21 13:08:25;;;;;;;59.60;4.13;;;;;;;;;;5091616;28;20458;-69
2022/07/21 13:10:52;;;;;;;58.90;4.20;;;;;;;;;;5089367;28;20473;-69
2022/07/21 13:13:21;;;;;;;60.73;4.57;;;;;;;;;;5091080;28;20541;-69
2022/07/21 13:15:48;;;;;;;59.20;4.17;;;;;;;;;;5091430;28;20470;-69
2022/07/21 13:18:15;;;;;;;58.67;4.33;;;;;;;;;;5091371;28;20480;-70
2022/07/21 13:20:43;;;;;;;58.00;4.10;;;;;;;;;;5090982;28;20474;-70
2022/07/21 13:23:10;;;;;;;58.17;4.07;;;;;;;;;;5091492;28;20465;-70
2022/07/21 13:25:37;;;;;;;58.13;4.20;;;;;;;;;;5091300;28;20546;-70
2022/07/21 13:28:04;;;;;;;59.20;4.30;;;;;;;;;;5091289;28;20442;-70
2022/07/21 13:30:33;;;;;;;58.33;4.47;;;;;;;;;;5091107;28;20885;-69
2022/07/21 13:33:00;;;;;;;57.90;4.00;;;;;;;;;;5090829;28;20446;-70
2022/07/21 13:35:27;;;;;;;60.67;4.80;;;;;;;;;;5091517;28;20483;-70
2022/07/21 13:37:55;;;;;;;58.67;4.63;;;;;;;;;;5091367;28;20533;-70
2022/07/21 13:40:22;;;;;;;59.67;4.30;;;;;;;;;;5091008;28;20462;-70
2022/07/21 13:42:49;;;;;;;59.50;4.70;;;;;;;;;;5089687;28;20542;-70
2022/07/21 13:45:16;;;;;;;57.60;4.13;;;;;;;;;;5091128;28;20529;-69
2022/07/21 13:47:45;;;;;;;58.40;4.23;;;;;;;;;;5091076;28;20824;-69
2022/07/21 13:50:12;;;;;;;58.90;4.63;;;;;;;;;;5090528;28;20462;-69
2022/07/21 13:52:40;;;;;;;58.47;4.50;;;;;;;;;;5093281;28;20450;-70
2022/07/21 13:55:08;;;;;;;59.10;5.30;;;;;;;;;;5094899;28;20450;-70
2022/07/21 13:57:35;;;;;;;58.50;4.30;;;;;;;;;;5094786;28;20999;-70
2022/07/21 14:00:02;;;;;;;57.80;4.33;;;;;;;;;;5094293;28;20462;-70
2022/07/21 14:02:30;;;;;;;58.20;4.30;;;;;;;;;;5094573;28;20511;-70
2022/07/21 14:04:58;;;;;;;59.70;4.77;;;;;;;;;;5094829;28;20827;-70
2022/07/21 14:07:25;;;;;;;59.13;4.50;;;;;;;;;;5094789;28;20819;-68
2022/07/21 14:09:53;;;;;;;61.40;4.60;;;;;;;;;;5094367;28;20549;-69
2022/07/21 14:12:20;;;;;;;57.80;4.60;;;;;;;;;;5091978;28;20463;-70
2022/07/21 14:14:47;;;;;;;58.60;4.30;;;;;;;;;;5094394;28;20963;-70
2022/07/21 14:17:14;;;;;;;58.20;4.10;;;;;;;;;;5094291;28;20482;-70
2022/07/21 14:19:43;;;;;;;58.27;4.20;;;;;;;;;;5094264;28;20975;-69
2022/07/21 14:22:12;;;;;;;57.77;3.80;;;;;;;;;;5094470;28;20511;-69
2022/07/21 14:27:24;;;;;;;58.27;4.17;;;;;;;;;;5094227;28;20425;-69
2022/07/21 14:29:51;;;;;;;58.87;4.10;;;;;;;;;;5093933;28;20492;-69
2022/07/21 14:32:21;;;;;;;59.03;4.00;;;;;;;;;;5093847;28;20442;-69
2022/07/21 14:34:48;;;;;;;57.83;3.60;;;;;;;;;;5094265;28;20526;-69
2022/07/21 14:37:18;;;;;;;59.00;3.97;;;;;;;;;;5094028;28;20484;-69
2022/07/21 14:39:45;;;;;;;57.80;3.27;;;;;;;;;;5093765;28;20889;-69
2022/07/21 14:42:12;;;;;;;57.93;3.60;;;;;;;;;;5093880;28;20452;-69